sensor_id;sensor_type;location;lat;lon;timestamp;temperature;humidity
13482;DHT22;6813;60.352;15.746;2023-03-03T00:02:07;5.00;89.40
13482;DHT22;6813;60.352;15.746;2023-03-03T00:04:33;5.00;88.80
13482;DHT22;6813;60.352;15.746;2023-03-03T00:06:59;5.20;89.30
13482;DHT22;6813;60.352;15.746;2023-03-03T00:09:25;5.10;87.70
13482;DHT22;6813;60.352;15.746;2023-03-03T00:11:55;5.20;88.30
13482;DHT22;6813;60.352;15.746;2023-03-03T00:14:29;5.30;89.90
13482;DHT22;6813;60.352;15.746;2023-03-03T00:16:56;5.30;88.40
13482;DHT22;6813;60.352;15.746;2023-03-03T00:19:22;5.30;88.00
13482;DHT22;6813;60.352;15.746;2023-03-03T00:21:49;5.10;87.10
13482;DHT22;6813;60.352;15.746;2023-03-03T00:24:35;5.00;88.10
13482;DHT22;6813;60.352;15.746;2023-03-03T00:27:28;4.90;88.00
13482;DHT22;6813;60.352;15.746;2023-03-03T00:29:57;4.90;88.50
13482;DHT22;6813;60.352;15.746;2023-03-03T00:32:25;4.90;87.90
13482;DHT22;6813;60.352;15.746;2023-03-03T00:34:53;4.80;87.40
13482;DHT22;6813;60.352;15.746;2023-03-03T00:37:33;4.90;88.30
13482;DHT22;6813;60.352;15.746;2023-03-03T00:40:19;5.00;89.00
13482;DHT22;6813;60.352;15.746;2023-03-03T00:42:50;5.10;88.80
13482;DHT22;6813;60.352;15.746;2023-03-03T00:45:38;5.10;87.70
13482;DHT22;6813;60.352;15.746;2023-03-03T00:50:42;5.10;88.20
13482;DHT22;6813;60.352;15.746;2023-03-03T00:53:14;5.20;89.20
13482;DHT22;6813;60.352;15.746;2023-03-03T00:55:42;5.20;87.80
13482;DHT22;6813;60.352;15.746;2023-03-03T00:58:08;5.00;87.00
13482;DHT22;6813;60.352;15.746;2023-03-03T01:00:35;4.90;87.70
13482;DHT22;6813;60.352;15.746;2023-03-03T01:03:03;4.70;88.40
13482;DHT22;6813;60.352;15.746;2023-03-03T01:05:29;4.80;90.40
13482;DHT22;6813;60.352;15.746;2023-03-03T01:07:55;5.00;90.30
13482;DHT22;6813;60.352;15.746;2023-03-03T01:10:21;5.00;90.30
13482;DHT22;6813;60.352;15.746;2023-03-03T01:12:47;5.00;90.20
13482;DHT22;6813;60.352;15.746;2023-03-03T01:15:14;5.00;90.50
13482;DHT22;6813;60.352;15.746;2023-03-03T01:17:41;5.10;89.80
13482;DHT22;6813;60.352;15.746;2023-03-03T01:20:09;5.10;89.10
13482;DHT22;6813;60.352;15.746;2023-03-03T01:22:36;5.20;89.20
13482;DHT22;6813;60.352;15.746;2023-03-03T01:25:02;5.10;88.50
13482;DHT22;6813;60.352;15.746;2023-03-03T01:27:29;5.20;89.20
13482;DHT22;6813;60.352;15.746;2023-03-03T01:29:55;5.30;90.20
13482;DHT22;6813;60.352;15.746;2023-03-03T01:32:22;5.30;89.60
13482;DHT22;6813;60.352;15.746;2023-03-03T01:34:48;5.20;88.90
13482;DHT22;6813;60.352;15.746;2023-03-03T01:37:13;5.20;89.80
13482;DHT22;6813;60.352;15.746;2023-03-03T01:39:39;5.10;89.70
13482;DHT22;6813;60.352;15.746;2023-03-03T01:42:05;5.10;90.20
13482;DHT22;6813;60.352;15.746;2023-03-03T01:44:32;5.10;90.00
13482;DHT22;6813;60.352;15.746;2023-03-03T01:47:08;5.10;89.70
13482;DHT22;6813;60.352;15.746;2023-03-03T01:50:02;5.20;90.10
13482;DHT22;6813;60.352;15.746;2023-03-03T01:54:59;5.10;90.40
13482;DHT22;6813;60.352;15.746;2023-03-03T01:57:33;5.10;90.30
13482;DHT22;6813;60.352;15.746;2023-03-03T02:00:03;4.90;88.80
13482;DHT22;6813;60.352;15.746;2023-03-03T02:02:30;4.80;89.10
13482;DHT22;6813;60.352;15.746;2023-03-03T02:04:57;4.80;90.30
13482;DHT22;6813;60.352;15.746;2023-03-03T02:07:24;4.70;90.00
13482;DHT22;6813;60.352;15.746;2023-03-03T02:10:00;4.70;90.30
13482;DHT22;6813;60.352;15.746;2023-03-03T02:12:50;4.60;89.90
13482;DHT22;6813;60.352;15.746;2023-03-03T02:15:20;4.70;90.60
13482;DHT22;6813;60.352;15.746;2023-03-03T02:17:50;4.60;89.20
13482;DHT22;6813;60.352;15.746;2023-03-03T02:20:31;4.50;89.90
13482;DHT22;6813;60.352;15.746;2023-03-03T02:28:23;4.30;90.00
13482;DHT22;6813;60.352;15.746;2023-03-03T02:30:51;4.40;90.60
13482;DHT22;6813;60.352;15.746;2023-03-03T02:33:18;4.40;90.60
13482;DHT22;6813;60.352;15.746;2023-03-03T02:35:44;4.40;90.20
13482;DHT22;6813;60.352;15.746;2023-03-03T02:38:36;4.40;90.00
13482;DHT22;6813;60.352;15.746;2023-03-03T02:43:50;4.20;90.00
13482;DHT22;6813;60.352;15.746;2023-03-03T02:46:18;4.20;90.00
13482;DHT22;6813;60.352;15.746;2023-03-03T02:48:44;4.30;89.60
13482;DHT22;6813;60.352;15.746;2023-03-03T02:51:09;4.40;90.10
13482;DHT22;6813;60.352;15.746;2023-03-03T02:53:35;4.20;88.80
13482;DHT22;6813;60.352;15.746;2023-03-03T02:56:01;4.10;89.40
13482;DHT22;6813;60.352;15.746;2023-03-03T02:58:29;4.00;89.40
13482;DHT22;6813;60.352;15.746;2023-03-03T03:00:54;4.00;90.40
13482;DHT22;6813;60.352;15.746;2023-03-03T03:03:20;4.00;90.00
13482;DHT22;6813;60.352;15.746;2023-03-03T03:05:46;4.00;90.10
13482;DHT22;6813;60.352;15.746;2023-03-03T03:08:11;4.10;90.40
13482;DHT22;6813;60.352;15.746;2023-03-03T03:10:37;4.10;90.30
13482;DHT22;6813;60.352;15.746;2023-03-03T03:13:03;4.10;91.00
13482;DHT22;6813;60.352;15.746;2023-03-03T03:15:28;4.20;91.20
13482;DHT22;6813;60.352;15.746;2023-03-03T03:17:54;4.20;90.50
13482;DHT22;6813;60.352;15.746;2023-03-03T03:20:20;4.10;90.30
13482;DHT22;6813;60.352;15.746;2023-03-03T03:22:45;4.10;90.50
13482;DHT22;6813;60.352;15.746;2023-03-03T03:25:11;4.10;90.40
13482;DHT22;6813;60.352;15.746;2023-03-03T03:27:37;4.20;90.50
13482;DHT22;6813;60.352;15.746;2023-03-03T03:30:03;4.20;90.80
13482;DHT22;6813;60.352;15.746;2023-03-03T03:32:28;4.20;89.80
13482;DHT22;6813;60.352;15.746;2023-03-03T03:34:54;4.10;90.40
13482;DHT22;6813;60.352;15.746;2023-03-03T03:37:20;4.10;89.70
13482;DHT22;6813;60.352;15.746;2023-03-03T03:39:45;3.80;90.30
13482;DHT22;6813;60.352;15.746;2023-03-03T03:42:11;3.90;91.10
13482;DHT22;6813;60.352;15.746;2023-03-03T03:44:37;4.00;90.90
13482;DHT22;6813;60.352;15.746;2023-03-03T03:47:03;4.10;91.10
13482;DHT22;6813;60.352;15.746;2023-03-03T03:49:28;3.90;90.50
13482;DHT22;6813;60.352;15.746;2023-03-03T03:51:54;3.90;90.40
13482;DHT22;6813;60.352;15.746;2023-03-03T03:54:20;3.80;90.70
13482;DHT22;6813;60.352;15.746;2023-03-03T03:56:45;3.90;90.80
13482;DHT22;6813;60.352;15.746;2023-03-03T03:59:11;3.90;90.90
13482;DHT22;6813;60.352;15.746;2023-03-03T04:01:37;3.80;90.30
13482;DHT22;6813;60.352;15.746;2023-03-03T04:04:02;3.80;90.70
13482;DHT22;6813;60.352;15.746;2023-03-03T04:06:30;3.80;90.80
13482;DHT22;6813;60.352;15.746;2023-03-03T04:08:56;3.80;90.60
13482;DHT22;6813;60.352;15.746;2023-03-03T04:11:22;3.90;91.00
13482;DHT22;6813;60.352;15.746;2023-03-03T04:13:47;3.90;90.80
13482;DHT22;6813;60.352;15.746;2023-03-03T04:16:13;3.80;91.00
13482;DHT22;6813;60.352;15.746;2023-03-03T04:18:40;3.80;91.10
13482;DHT22;6813;60.352;15.746;2023-03-03T04:21:06;3.90;91.60
13482;DHT22;6813;60.352;15.746;2023-03-03T04:23:34;4.10;91.60
13482;DHT22;6813;60.352;15.746;2023-03-03T04:26:00;3.90;90.80
13482;DHT22;6813;60.352;15.746;2023-03-03T04:28:25;3.90;91.10
13482;DHT22;6813;60.352;15.746;2023-03-03T04:30:51;3.90;91.40
13482;DHT22;6813;60.352;15.746;2023-03-03T04:33:17;3.80;91.20
13482;DHT22;6813;60.352;15.746;2023-03-03T04:35:42;3.80;91.20
13482;DHT22;6813;60.352;15.746;2023-03-03T04:38:08;3.80;91.60
13482;DHT22;6813;60.352;15.746;2023-03-03T04:40:34;3.60;91.60
13482;DHT22;6813;60.352;15.746;2023-03-03T04:42:59;3.70;91.80
13482;DHT22;6813;60.352;15.746;2023-03-03T04:45:25;3.60;91.70
13482;DHT22;6813;60.352;15.746;2023-03-03T04:47:51;3.70;92.70
13482;DHT22;6813;60.352;15.746;2023-03-03T04:50:16;3.90;93.10
13482;DHT22;6813;60.352;15.746;2023-03-03T04:52:42;3.80;91.60
13482;DHT22;6813;60.352;15.746;2023-03-03T04:55:08;3.70;91.60
13482;DHT22;6813;60.352;15.746;2023-03-03T04:57:34;3.60;91.60
13482;DHT22;6813;60.352;15.746;2023-03-03T05:00:00;3.60;91.80
13482;DHT22;6813;60.352;15.746;2023-03-03T05:02:25;3.70;92.10
13482;DHT22;6813;60.352;15.746;2023-03-03T05:04:51;3.80;92.80
13482;DHT22;6813;60.352;15.746;2023-03-03T05:07:17;3.90;92.30
13482;DHT22;6813;60.352;15.746;2023-03-03T05:09:43;4.00;92.40
13482;DHT22;6813;60.352;15.746;2023-03-03T05:12:09;4.00;92.40
13482;DHT22;6813;60.352;15.746;2023-03-03T05:14:34;4.00;92.20
13482;DHT22;6813;60.352;15.746;2023-03-03T05:17:02;4.10;92.20
13482;DHT22;6813;60.352;15.746;2023-03-03T05:19:27;4.00;92.30
13482;DHT22;6813;60.352;15.746;2023-03-03T05:21:53;4.00;91.90
13482;DHT22;6813;60.352;15.746;2023-03-03T05:24:19;4.00;92.00
13482;DHT22;6813;60.352;15.746;2023-03-03T05:26:45;4.00;92.00
13482;DHT22;6813;60.352;15.746;2023-03-03T05:29:11;3.90;91.80
13482;DHT22;6813;60.352;15.746;2023-03-03T05:31:36;3.90;92.10
13482;DHT22;6813;60.352;15.746;2023-03-03T05:34:02;4.10;92.50
13482;DHT22;6813;60.352;15.746;2023-03-03T05:36:28;4.10;91.70
13482;DHT22;6813;60.352;15.746;2023-03-03T05:38:53;4.20;91.60
13482;DHT22;6813;60.352;15.746;2023-03-03T05:41:19;4.00;91.50
13482;DHT22;6813;60.352;15.746;2023-03-03T05:43:45;4.10;91.90
13482;DHT22;6813;60.352;15.746;2023-03-03T05:46:11;4.10;91.70
13482;DHT22;6813;60.352;15.746;2023-03-03T05:48:36;4.20;92.50
13482;DHT22;6813;60.352;15.746;2023-03-03T05:51:02;4.20;91.60
13482;DHT22;6813;60.352;15.746;2023-03-03T05:53:28;4.30;92.10
13482;DHT22;6813;60.352;15.746;2023-03-03T05:55:54;4.20;91.80
13482;DHT22;6813;60.352;15.746;2023-03-03T05:58:20;4.30;91.90
13482;DHT22;6813;60.352;15.746;2023-03-03T06:00:46;4.30;91.30
13482;DHT22;6813;60.352;15.746;2023-03-03T06:03:12;4.20;91.80
13482;DHT22;6813;60.352;15.746;2023-03-03T06:05:38;4.10;91.20
13482;DHT22;6813;60.352;15.746;2023-03-03T06:08:04;4.10;90.80
13482;DHT22;6813;60.352;15.746;2023-03-03T06:10:30;4.10;91.30
13482;DHT22;6813;60.352;15.746;2023-03-03T06:12:55;4.20;91.20
13482;DHT22;6813;60.352;15.746;2023-03-03T06:15:23;4.20;91.00
13482;DHT22;6813;60.352;15.746;2023-03-03T06:17:48;4.10;91.00
13482;DHT22;6813;60.352;15.746;2023-03-03T06:20:14;4.00;91.20
13482;DHT22;6813;60.352;15.746;2023-03-03T06:22:40;4.10;90.80
13482;DHT22;6813;60.352;15.746;2023-03-03T06:25:06;4.20;91.90
13482;DHT22;6813;60.352;15.746;2023-03-03T06:27:32;4.30;91.00
13482;DHT22;6813;60.352;15.746;2023-03-03T06:29:58;4.30;91.10
13482;DHT22;6813;60.352;15.746;2023-03-03T06:32:23;4.40;90.50
13482;DHT22;6813;60.352;15.746;2023-03-03T06:34:49;4.50;90.60
13482;DHT22;6813;60.352;15.746;2023-03-03T06:37:15;4.50;90.50
13482;DHT22;6813;60.352;15.746;2023-03-03T06:39:41;4.60;90.10
13482;DHT22;6813;60.352;15.746;2023-03-03T06:42:06;4.70;90.30
13482;DHT22;6813;60.352;15.746;2023-03-03T06:44:34;4.70;89.40
13482;DHT22;6813;60.352;15.746;2023-03-03T06:47:00;4.70;89.50
13482;DHT22;6813;60.352;15.746;2023-03-03T06:49:26;4.80;88.40
13482;DHT22;6813;60.352;15.746;2023-03-03T06:51:52;4.80;89.00
13482;DHT22;6813;60.352;15.746;2023-03-03T06:54:24;4.90;90.10
13482;DHT22;6813;60.352;15.746;2023-03-03T06:56:57;5.00;89.90
13482;DHT22;6813;60.352;15.746;2023-03-03T06:59:23;4.90;89.30
13482;DHT22;6813;60.352;15.746;2023-03-03T07:01:49;5.00;90.50
13482;DHT22;6813;60.352;15.746;2023-03-03T07:06:44;5.20;90.00
13482;DHT22;6813;60.352;15.746;2023-03-03T07:09:24;5.20;89.00
13482;DHT22;6813;60.352;15.746;2023-03-03T07:12:01;5.10;87.20
13482;DHT22;6813;60.352;15.746;2023-03-03T07:14:31;5.00;87.30
13482;DHT22;6813;60.352;15.746;2023-03-03T07:17:04;5.00;89.00
13482;DHT22;6813;60.352;15.746;2023-03-03T07:19:34;5.00;88.70
13482;DHT22;6813;60.352;15.746;2023-03-03T07:24:39;4.90;89.20
13482;DHT22;6813;60.352;15.746;2023-03-03T07:27:10;4.80;90.10
13482;DHT22;6813;60.352;15.746;2023-03-03T07:29:37;5.00;92.80
13482;DHT22;6813;60.352;15.746;2023-03-03T07:34:47;5.30;90.50
13482;DHT22;6813;60.352;15.746;2023-03-03T07:39:49;5.30;89.30
13482;DHT22;6813;60.352;15.746;2023-03-03T07:42:39;5.10;87.30
13482;DHT22;6813;60.352;15.746;2023-03-03T07:45:26;4.90;89.40
13482;DHT22;6813;60.352;15.746;2023-03-03T07:47:59;4.90;90.10
13482;DHT22;6813;60.352;15.746;2023-03-03T07:50:25;4.90;89.40
13482;DHT22;6813;60.352;15.746;2023-03-03T07:52:58;4.90;89.50
13482;DHT22;6813;60.352;15.746;2023-03-03T07:55:36;4.80;89.40
13482;DHT22;6813;60.352;15.746;2023-03-03T08:03:41;4.60;89.20
13482;DHT22;6813;60.352;15.746;2023-03-03T08:06:30;4.40;89.90
13482;DHT22;6813;60.352;15.746;2023-03-03T08:11:54;4.50;90.00
13482;DHT22;6813;60.352;15.746;2023-03-03T08:14:40;4.50;90.30
13482;DHT22;6813;60.352;15.746;2023-03-03T08:17:23;4.60;89.80
13482;DHT22;6813;60.352;15.746;2023-03-03T08:19:50;4.60;88.60
13482;DHT22;6813;60.352;15.746;2023-03-03T08:22:33;4.60;89.20
13482;DHT22;6813;60.352;15.746;2023-03-03T08:25:03;4.70;90.30
13482;DHT22;6813;60.352;15.746;2023-03-03T08:27:30;4.70;88.80
13482;DHT22;6813;60.352;15.746;2023-03-03T08:29:55;4.70;89.10
13482;DHT22;6813;60.352;15.746;2023-03-03T08:32:21;4.80;89.60
13482;DHT22;6813;60.352;15.746;2023-03-03T08:34:47;4.80;89.00
13482;DHT22;6813;60.352;15.746;2023-03-03T08:37:12;4.90;87.50
13482;DHT22;6813;60.352;15.746;2023-03-03T08:39:38;4.80;88.00
13482;DHT22;6813;60.352;15.746;2023-03-03T08:42:04;4.90;88.10
13482;DHT22;6813;60.352;15.746;2023-03-03T08:44:29;4.90;89.20
13482;DHT22;6813;60.352;15.746;2023-03-03T08:46:55;5.00;89.00
13482;DHT22;6813;60.352;15.746;2023-03-03T08:49:21;5.00;88.20
13482;DHT22;6813;60.352;15.746;2023-03-03T08:51:47;4.90;87.60
13482;DHT22;6813;60.352;15.746;2023-03-03T08:54:12;5.00;89.90
13482;DHT22;6813;60.352;15.746;2023-03-03T08:56:38;5.00;88.70
13482;DHT22;6813;60.352;15.746;2023-03-03T08:59:04;5.00;87.10
13482;DHT22;6813;60.352;15.746;2023-03-03T09:01:31;4.90;88.40
13482;DHT22;6813;60.352;15.746;2023-03-03T09:03:58;4.90;88.90
13482;DHT22;6813;60.352;15.746;2023-03-03T09:06:24;5.00;89.90
13482;DHT22;6813;60.352;15.746;2023-03-03T09:08:49;5.10;88.70
13482;DHT22;6813;60.352;15.746;2023-03-03T09:11:23;5.10;87.60
13482;DHT22;6813;60.352;15.746;2023-03-03T09:14:12;5.10;87.60
13482;DHT22;6813;60.352;15.746;2023-03-03T09:16:49;5.20;89.90
13482;DHT22;6813;60.352;15.746;2023-03-03T09:19:29;5.20;87.80
13482;DHT22;6813;60.352;15.746;2023-03-03T09:22:02;5.30;90.30
13482;DHT22;6813;60.352;15.746;2023-03-03T09:24:36;5.50;90.60
13482;DHT22;6813;60.352;15.746;2023-03-03T09:27:01;5.50;88.30
13482;DHT22;6813;60.352;15.746;2023-03-03T09:29:36;5.50;88.40
13482;DHT22;6813;60.352;15.746;2023-03-03T09:32:34;5.30;86.80
13482;DHT22;6813;60.352;15.746;2023-03-03T09:37:56;5.30;88.30
13482;DHT22;6813;60.352;15.746;2023-03-03T09:43:16;5.40;87.60
13482;DHT22;6813;60.352;15.746;2023-03-03T09:53:59;5.20;85.40
13482;DHT22;6813;60.352;15.746;2023-03-03T09:56:33;5.20;86.30
13482;DHT22;6813;60.352;15.746;2023-03-03T10:01:56;5.40;89.40
13482;DHT22;6813;60.352;15.746;2023-03-03T10:12:47;5.70;85.00
13482;DHT22;6813;60.352;15.746;2023-03-03T10:15:20;5.80;85.60
13482;DHT22;6813;60.352;15.746;2023-03-03T10:28:56;6.20;84.20
13482;DHT22;6813;60.352;15.746;2023-03-03T10:40:33;6.40;81.50
13482;DHT22;6813;60.352;15.746;2023-03-03T10:43:11;6.30;79.00
13482;DHT22;6813;60.352;15.746;2023-03-03T10:59:40;7.50;77.10
13482;DHT22;6813;60.352;15.746;2023-03-03T11:07:26;7.70;79.70
13482;DHT22;6813;60.352;15.746;2023-03-03T11:20:54;7.90;73.00
13482;DHT22;6813;60.352;15.746;2023-03-03T11:23:51;7.90;74.60
13482;DHT22;6813;60.352;15.746;2023-03-03T11:29:50;7.90;74.60
13482;DHT22;6813;60.352;15.746;2023-03-03T11:35:27;7.70;73.40
13482;DHT22;6813;60.352;15.746;2023-03-03T11:40:37;7.90;76.70
13482;DHT22;6813;60.352;15.746;2023-03-03T11:46:06;7.90;71.40
13482;DHT22;6813;60.352;15.746;2023-03-03T11:54:21;7.70;73.40
13482;DHT22;6813;60.352;15.746;2023-03-03T11:56:48;7.60;73.30
13482;DHT22;6813;60.352;15.746;2023-03-03T11:59:31;7.50;73.50
13482;DHT22;6813;60.352;15.746;2023-03-03T12:02:38;7.50;72.00
13482;DHT22;6813;60.352;15.746;2023-03-03T12:08:11;8.00;77.70
13482;DHT22;6813;60.352;15.746;2023-03-03T12:18:53;8.50;76.20
13482;DHT22;6813;60.352;15.746;2023-03-03T12:21:26;8.60;75.80
13482;DHT22;6813;60.352;15.746;2023-03-03T12:29:35;9.00;72.50
13482;DHT22;6813;60.352;15.746;2023-03-03T12:35:50;9.10;74.80
13482;DHT22;6813;60.352;15.746;2023-03-03T12:43:43;9.10;76.40
13482;DHT22;6813;60.352;15.746;2023-03-03T12:48:47;9.20;73.70
13482;DHT22;6813;60.352;15.746;2023-03-03T12:57:30;9.10;71.30
13482;DHT22;6813;60.352;15.746;2023-03-03T13:03:05;9.00;74.30
13482;DHT22;6813;60.352;15.746;2023-03-03T13:05:51;9.20;75.60
13482;DHT22;6813;60.352;15.746;2023-03-03T13:11:17;9.10;74.70
13482;DHT22;6813;60.352;15.746;2023-03-03T13:16:26;8.90;73.00
13482;DHT22;6813;60.352;15.746;2023-03-03T13:18:58;9.00;76.90
13482;DHT22;6813;60.352;15.746;2023-03-03T13:21:48;8.90;75.10
13482;DHT22;6813;60.352;15.746;2023-03-03T13:27:13;9.00;81.30
13482;DHT22;6813;60.352;15.746;2023-03-03T13:29:53;9.00;78.10
13482;DHT22;6813;60.352;15.746;2023-03-03T13:32:23;9.00;76.30
13482;DHT22;6813;60.352;15.746;2023-03-03T13:37:40;9.00;77.80
13482;DHT22;6813;60.352;15.746;2023-03-03T13:40:17;9.00;77.40
13482;DHT22;6813;60.352;15.746;2023-03-03T13:42:52;9.00;80.60
13482;DHT22;6813;60.352;15.746;2023-03-03T13:45:50;8.90;79.00
13482;DHT22;6813;60.352;15.746;2023-03-03T13:48:41;8.90;81.40
13482;DHT22;6813;60.352;15.746;2023-03-03T13:57:02;8.80;82.50
13482;DHT22;6813;60.352;15.746;2023-03-03T14:02:26;8.70;81.10
13482;DHT22;6813;60.352;15.746;2023-03-03T14:11:22;8.70;83.70
13482;DHT22;6813;60.352;15.746;2023-03-03T14:16:56;8.50;81.20
13482;DHT22;6813;60.352;15.746;2023-03-03T14:19:43;8.60;83.60
13482;DHT22;6813;60.352;15.746;2023-03-03T14:22:25;8.60;80.60
13482;DHT22;6813;60.352;15.746;2023-03-03T14:25:07;8.60;81.10
13482;DHT22;6813;60.352;15.746;2023-03-03T14:28:01;8.60;83.40
13482;DHT22;6813;60.352;15.746;2023-03-03T14:40:35;8.50;84.60
13482;DHT22;6813;60.352;15.746;2023-03-03T14:43:17;8.50;85.90
13482;DHT22;6813;60.352;15.746;2023-03-03T14:45:44;8.30;85.10
13482;DHT22;6813;60.352;15.746;2023-03-03T14:48:19;8.20;86.20
13482;DHT22;6813;60.352;15.746;2023-03-03T14:53:38;8.10;87.40
13482;DHT22;6813;60.352;15.746;2023-03-03T14:56:22;8.00;86.30
13482;DHT22;6813;60.352;15.746;2023-03-03T14:58:50;7.90;85.10
13482;DHT22;6813;60.352;15.746;2023-03-03T15:01:30;7.90;86.60
13482;DHT22;6813;60.352;15.746;2023-03-03T15:08:56;8.00;83.30
13482;DHT22;6813;60.352;15.746;2023-03-03T15:11:26;8.00;83.60
13482;DHT22;6813;60.352;15.746;2023-03-03T15:14:10;8.00;81.00
13482;DHT22;6813;60.352;15.746;2023-03-03T15:16:36;8.00;78.50
13482;DHT22;6813;60.352;15.746;2023-03-03T15:19:37;8.00;77.20
13482;DHT22;6813;60.352;15.746;2023-03-03T15:22:09;7.90;75.10
13482;DHT22;6813;60.352;15.746;2023-03-03T15:24:44;7.80;74.90
13482;DHT22;6813;60.352;15.746;2023-03-03T15:27:21;7.70;75.80
13482;DHT22;6813;60.352;15.746;2023-03-03T15:32:28;7.60;81.70
13482;DHT22;6813;60.352;15.746;2023-03-03T15:35:39;7.60;76.80
13482;DHT22;6813;60.352;15.746;2023-03-03T15:38:04;7.60;76.00
13482;DHT22;6813;60.352;15.746;2023-03-03T15:40:49;7.50;79.60
13482;DHT22;6813;60.352;15.746;2023-03-03T15:46:14;7.30;75.10
13482;DHT22;6813;60.352;15.746;2023-03-03T15:48:45;7.30;78.80
13482;DHT22;6813;60.352;15.746;2023-03-03T15:53:57;7.30;75.20
13482;DHT22;6813;60.352;15.746;2023-03-03T15:56:50;7.30;80.50
13482;DHT22;6813;60.352;15.746;2023-03-03T16:02:27;7.50;77.60
13482;DHT22;6813;60.352;15.746;2023-03-03T16:05:27;7.20;73.20
13482;DHT22;6813;60.352;15.746;2023-03-03T16:08:12;7.00;77.00
13482;DHT22;6813;60.352;15.746;2023-03-03T16:13:30;7.10;77.30
13482;DHT22;6813;60.352;15.746;2023-03-03T16:18:52;7.00;79.00
13482;DHT22;6813;60.352;15.746;2023-03-03T16:21:21;6.90;76.30
13482;DHT22;6813;60.352;15.746;2023-03-03T16:23:59;6.90;76.30
13482;DHT22;6813;60.352;15.746;2023-03-03T16:31:42;6.60;75.40
13482;DHT22;6813;60.352;15.746;2023-03-03T16:34:12;6.50;75.30
13482;DHT22;6813;60.352;15.746;2023-03-03T16:42:27;6.50;81.20
13482;DHT22;6813;60.352;15.746;2023-03-03T16:53:30;6.00;71.80
13482;DHT22;6813;60.352;15.746;2023-03-03T17:01:40;6.20;76.60
13482;DHT22;6813;60.352;15.746;2023-03-03T17:04:35;6.10;74.40
13482;DHT22;6813;60.352;15.746;2023-03-03T17:10:04;5.80;72.60
13482;DHT22;6813;60.352;15.746;2023-03-03T17:15:34;5.70;75.10
13482;DHT22;6813;60.352;15.746;2023-03-03T17:23:29;5.50;78.10
13482;DHT22;6813;60.352;15.746;2023-03-03T17:35:33;5.40;72.20
13482;DHT22;6813;60.352;15.746;2023-03-03T17:40:46;5.20;74.50
13482;DHT22;6813;60.352;15.746;2023-03-03T17:45:48;5.30;75.30
13482;DHT22;6813;60.352;15.746;2023-03-03T17:51:21;5.10;75.10
13482;DHT22;6813;60.352;15.746;2023-03-03T17:56:56;5.20;76.60
13482;DHT22;6813;60.352;15.746;2023-03-03T17:59:36;5.20;76.30
13482;DHT22;6813;60.352;15.746;2023-03-03T18:11:14;5.00;76.90
13482;DHT22;6813;60.352;15.746;2023-03-03T18:19:31;5.00;76.90
13482;DHT22;6813;60.352;15.746;2023-03-03T18:35:37;4.80;76.70
13482;DHT22;6813;60.352;15.746;2023-03-03T18:40:55;4.70;75.20
13482;DHT22;6813;60.352;15.746;2023-03-03T18:49:09;4.50;79.00
13482;DHT22;6813;60.352;15.746;2023-03-03T19:04:42;4.00;76.90
13482;DHT22;6813;60.352;15.746;2023-03-03T19:07:23;4.00;83.10
13482;DHT22;6813;60.352;15.746;2023-03-03T19:09:55;4.20;83.20
13482;DHT22;6813;60.352;15.746;2023-03-03T19:12:56;4.20;81.30
13482;DHT22;6813;60.352;15.746;2023-03-03T19:20:39;3.70;75.30
13482;DHT22;6813;60.352;15.746;2023-03-03T19:23:15;3.70;80.50
13482;DHT22;6813;60.352;15.746;2023-03-03T19:25:42;3.70;76.70
13482;DHT22;6813;60.352;15.746;2023-03-03T19:31:06;3.70;77.30
13482;DHT22;6813;60.352;15.746;2023-03-03T19:34:29;3.60;75.40
13482;DHT22;6813;60.352;15.746;2023-03-03T19:40:17;3.40;77.90
13482;DHT22;6813;60.352;15.746;2023-03-03T19:42:46;3.50;78.40
13482;DHT22;6813;60.352;15.746;2023-03-03T19:48:14;3.50;78.20
13482;DHT22;6813;60.352;15.746;2023-03-03T19:50:53;3.50;79.80
13482;DHT22;6813;60.352;15.746;2023-03-03T19:53:26;3.40;79.60
13482;DHT22;6813;60.352;15.746;2023-03-03T19:56:07;3.50;78.00
13482;DHT22;6813;60.352;15.746;2023-03-03T19:59:00;3.50;79.90
13482;DHT22;6813;60.352;15.746;2023-03-03T20:01:43;3.60;81.80
13482;DHT22;6813;60.352;15.746;2023-03-03T20:16:44;3.10;77.20
13482;DHT22;6813;60.352;15.746;2023-03-03T20:21:52;3.10;78.10
13482;DHT22;6813;60.352;15.746;2023-03-03T20:24:49;3.10;81.40
13482;DHT22;6813;60.352;15.746;2023-03-03T20:27:52;3.10;77.10
13482;DHT22;6813;60.352;15.746;2023-03-03T20:33:42;3.10;77.70
13482;DHT22;6813;60.352;15.746;2023-03-03T20:36:24;3.20;81.60
13482;DHT22;6813;60.352;15.746;2023-03-03T20:45:12;3.10;79.80
13482;DHT22;6813;60.352;15.746;2023-03-03T20:51:16;2.80;76.90
13482;DHT22;6813;60.352;15.746;2023-03-03T20:53:45;2.70;77.70
13482;DHT22;6813;60.352;15.746;2023-03-03T20:56:31;2.70;77.70
13482;DHT22;6813;60.352;15.746;2023-03-03T21:04:41;2.60;77.60
13482;DHT22;6813;60.352;15.746;2023-03-03T21:07:07;2.70;79.60
13482;DHT22;6813;60.352;15.746;2023-03-03T21:12:11;2.90;79.80
13482;DHT22;6813;60.352;15.746;2023-03-03T21:15:00;2.90;77.90
13482;DHT22;6813;60.352;15.746;2023-03-03T21:17:28;2.80;77.00
13482;DHT22;6813;60.352;15.746;2023-03-03T21:19:54;2.80;80.80
13482;DHT22;6813;60.352;15.746;2023-03-03T21:22:20;2.70;77.60
13482;DHT22;6813;60.352;15.746;2023-03-03T21:24:56;2.70;77.70
13482;DHT22;6813;60.352;15.746;2023-03-03T21:27:31;2.60;78.90
13482;DHT22;6813;60.352;15.746;2023-03-03T21:30:15;2.70;80.80
13482;DHT22;6813;60.352;15.746;2023-03-03T21:32:44;2.70;76.80
13482;DHT22;6813;60.352;15.746;2023-03-03T21:35:20;2.60;76.30
13482;DHT22;6813;60.352;15.746;2023-03-03T21:37:53;2.50;78.70
13482;DHT22;6813;60.352;15.746;2023-03-03T21:40:27;2.40;77.10
13482;DHT22;6813;60.352;15.746;2023-03-03T21:42:57;2.30;80.60
13482;DHT22;6813;60.352;15.746;2023-03-03T21:45:25;2.50;77.50
13482;DHT22;6813;60.352;15.746;2023-03-03T21:47:51;2.50;78.20
13482;DHT22;6813;60.352;15.746;2023-03-03T21:50:22;2.40;76.40
13482;DHT22;6813;60.352;15.746;2023-03-03T21:52:49;2.30;78.40
13482;DHT22;6813;60.352;15.746;2023-03-03T21:55:14;2.00;77.20
13482;DHT22;6813;60.352;15.746;2023-03-03T21:57:40;2.10;81.90
13482;DHT22;6813;60.352;15.746;2023-03-03T22:00:08;2.00;78.60
13482;DHT22;6813;60.352;15.746;2023-03-03T22:02:34;2.00;79.90
13482;DHT22;6813;60.352;15.746;2023-03-03T22:05:01;2.00;80.80
13482;DHT22;6813;60.352;15.746;2023-03-03T22:07:32;1.90;77.40
13482;DHT22;6813;60.352;15.746;2023-03-03T22:09:57;1.90;78.30
13482;DHT22;6813;60.352;15.746;2023-03-03T22:12:23;1.90;80.50
13482;DHT22;6813;60.352;15.746;2023-03-03T22:14:49;2.00;79.40
13482;DHT22;6813;60.352;15.746;2023-03-03T22:17:14;2.10;78.60
13482;DHT22;6813;60.352;15.746;2023-03-03T22:19:40;2.00;81.60
13482;DHT22;6813;60.352;15.746;2023-03-03T22:22:06;2.10;80.00
13482;DHT22;6813;60.352;15.746;2023-03-03T22:24:31;2.00;77.00
13482;DHT22;6813;60.352;15.746;2023-03-03T22:26:57;2.20;83.20
13482;DHT22;6813;60.352;15.746;2023-03-03T22:29:23;2.00;78.20
13482;DHT22;6813;60.352;15.746;2023-03-03T22:31:49;2.00;81.50
13482;DHT22;6813;60.352;15.746;2023-03-03T22:34:15;2.00;81.50
13482;DHT22;6813;60.352;15.746;2023-03-03T22:36:41;1.90;79.10